Time;durP1;ratioP1;P1;durP2;ratioP2;P2;SDS_P1;SDS_P2;PMS_P1;PMS_P2;Temp;Humidity;BMP_temperature;BMP_pressure;BME280_temperature;BME280_humidity;BME280_pressure;Samples;Min_cycle;Max_cycle;Signal;HPM_P1;HPM_P2
2023/12/05 00:00:20;;;;;;;;;;;;;;;;;;5118993;28;19963;-57
2023/12/05 00:02:46;;;;;;;;;;;;;;;;;;5119559;28;19928;-58
2023/12/05 00:05:14;;;;;;;;;;;;;;;;;;5119302;28;20003;-57
2023/12/05 00:07:42;;;;;;;;;;;;;;;;;;5120524;28;20416;-57
2023/12/05 00:10:09;;;;;;;;;;;;;;;;;;5126709;27;20390;-58
2023/12/05 00:12:36;;;;;;;;;;;;;;;;;;5118931;28;19967;-58
2023/12/05 00:15:03;;;;;;;;;;;;;;;;;;5120637;28;19967;-57
2023/12/05 00:17:30;;;;;;;;;;;;;;;;;;5136589;27;19969;-58
2023/12/05 00:19:56;;;;;;;;;;;;;;;;;;5143263;27;20405;-62
2023/12/05 00:22:26;;;;;;;;;;;;;;;;;;5125866;28;20354;-56
2023/12/05 00:24:53;;;;;;;;;;;;;;;;;;5131325;28;19967;-58
2023/12/05 00:27:19;;;;;;;;;;;;;;;;;;5132968;28;20043;-58
2023/12/05 00:29:47;;;;;;;;;;;;;;;;;;5117013;28;20014;-58
2023/12/05 00:32:13;;;;;;;;;;;;;;;;;;5124484;28;20468;-58
2023/12/05 00:34:40;;;;;;;;;;;;;;;;;;5138788;27;20014;-58
2023/12/05 00:37:06;;;;;;;;;;;;;;;;;;5133150;28;19962;-59
2023/12/05 00:39:34;;;;;;;;;;;;;;;;;;5137308;27;19969;-58
2023/12/05 00:42:01;;;;;;;;;;;;;;;;;;5129717;27;19923;-58
2023/12/05 00:44:27;;;;;;;;;;;;;;;;;;5123966;28;19959;-59
2023/12/05 00:46:54;;;;;;;;;;;;;;;;;;5133382;28;20038;-59
2023/12/05 00:49:20;;;;;;;;;;;;;;;;;;5132704;28;20346;-63
2023/12/05 00:51:47;;;;;;;;;;;;;;;;;;5132654;28;19924;-60
2023/12/05 00:54:14;;;;;;;;;;;;;;;;;;5132278;28;19966;-63
2023/12/05 00:56:41;;;;;;;;;;;;;;;;;;5128315;28;19927;-62
2023/12/05 00:59:08;;;;;;;;;;;;;;;;;;5132264;28;20417;-61
2023/12/05 01:01:34;;;;;;;;;;;;;;;;;;5133837;27;20422;-62
2023/12/05 01:04:01;;;;;;;;;;;;;;;;;;5136386;27;20616;-59
2023/12/05 01:06:28;;;;;;;;;;;;;;;;;;5135908;27;19923;-61
2023/12/05 01:08:54;;;;;;;;;;;;;;;;;;5135752;27;19928;-63
2023/12/05 01:11:21;;;;;;;;;;;;;;;;;;5136258;27;19923;-61
2023/12/05 01:13:49;;;;;;;;;;;;;;;;;;5136497;27;19976;-63
2023/12/05 01:16:15;;;;;;;;;;;;;;;;;;5123488;27;20006;-60
2023/12/05 01:18:42;;;;;;;;;;;;;;;;;;5136482;27;19962;-63
2023/12/05 01:21:09;;;;;;;;;;;;;;;;;;5139099;27;20018;-61
2023/12/05 01:23:35;;;;;;;;;;;;;;;;;;5127487;27;20027;-62
2023/12/05 01:26:02;;;;;;;;;;;;;;;;;;5131888;27;19962;-63
2023/12/05 01:28:28;;;;;;;;;;;;;;;;;;5135944;27;19928;-64
2023/12/05 01:30:56;;;;;;;;;;;;;;;;;;5135405;27;19924;-63
2023/12/05 01:33:22;;;;;;;;;;;;;;;;;;5140699;27;19924;-65
2023/12/05 01:35:49;;;;;;;;;;;;;;;;;;5135209;27;19967;-62
2023/12/05 01:38:18;;;;;;;;;;;;;;;;;;5135350;27;19937;-60
2023/12/05 01:40:44;;;;;;;;;;;;;;;;;;5135265;27;19923;-60
2023/12/05 01:43:11;;;;;;;;;;;;;;;;;;5135452;27;19958;-63
2023/12/05 01:45:37;;;;;;;;;;;;;;;;;;5135331;27;19971;-61
2023/12/05 01:48:07;;;;;;;;;;;;;;;;;;5141673;27;19965;-61
2023/12/05 01:50:34;;;;;;;;;;;;;;;;;;5132873;27;19923;-63
2023/12/05 01:53:03;;;;;;;;;;;;;;;;;;5135729;27;20421;-60
2023/12/05 01:55:29;;;;;;;;;;;;;;;;;;5135055;27;20006;-62
2023/12/05 01:57:56;;;;;;;;;;;;;;;;;;5135270;27;19966;-63
2023/12/05 02:00:24;;;;;;;;;;;;;;;;;;5134926;27;20014;-60
2023/12/05 02:02:50;;;;;;;;;;;;;;;;;;5135055;27;20023;-61
2023/12/05 02:05:18;;;;;;;;;;;;;;;;;;5134982;27;20367;-61
2023/12/05 02:07:45;;;;;;;;;;;;;;;;;;5134998;27;19935;-63
2023/12/05 02:10:11;;;;;;;;;;;;;;;;;;5134839;27;20019;-63
2023/12/05 02:12:38;;;;;;;;;;;;;;;;;;5130238;27;19938;-62
2023/12/05 02:15:06;;;;;;;;;;;;;;;;;;5127065;27;19927;-63
2023/12/05 02:17:35;;;;;;;;;;;;;;;;;;5129655;27;19930;-63
2023/12/05 02:20:06;;;;;;;;;;;;;;;;;;5134599;27;19980;-61
2023/12/05 02:22:57;;;;;;;;;;;;;;;;;;5126439;27;19923;-61
2023/12/05 02:25:32;;;;;;;;;;;;;;;;;;5134637;27;19945;-63
2023/12/05 02:28:01;;;;;;;;;;;;;;;;;;5134695;27;19988;-63
2023/12/05 02:30:27;;;;;;;;;;;;;;;;;;5134369;27;19975;-60
2023/12/05 02:32:54;;;;;;;;;;;;;;;;;;5134717;27;19982;-61
2023/12/05 02:35:20;;;;;;;;;;;;;;;;;;5134584;27;20366;-60
2023/12/05 02:37:50;;;;;;;;;;;;;;;;;;5134608;27;19966;-61
2023/12/05 02:40:22;;;;;;;;;;;;;;;;;;5134316;27;20006;-61
2023/12/05 02:42:50;;;;;;;;;;;;;;;;;;5132734;27;20456;-63
2023/12/05 02:45:19;;;;;;;;;;;;;;;;;;5134010;27;19971;-63
2023/12/05 02:47:46;;;;;;;;;;;;;;;;;;5134325;27;19963;-61
2023/12/05 02:50:13;;;;;;;;;;;;;;;;;;5133955;27;20450;-63
2023/12/05 02:52:39;;;;;;;;;;;;;;;;;;5123812;27;19924;-59
2023/12/05 02:55:06;;;;;;;;;;;;;;;;;;5121223;27;20006;-59
2023/12/05 02:57:32;;;;;;;;;;;;;;;;;;5132069;27;20017;-62
2023/12/05 02:59:59;;;;;;;;;;;;;;;;;;5134056;27;19966;-60
2023/12/05 03:02:27;;;;;;;;;;;;;;;;;;5134023;27;19969;-61
2023/12/05 03:04:53;;;;;;;;;;;;;;;;;;5132771;27;19975;-61
2023/12/05 03:07:20;;;;;;;;;;;;;;;;;;5133658;27;20022;-58
2023/12/05 03:09:47;;;;;;;;;;;;;;;;;;5128455;27;20386;-58
2023/12/05 03:12:13;;;;;;;;;;;;;;;;;;5127184;27;20010;-58
2023/12/05 03:14:39;;;;;;;;;;;;;;;;;;5114534;28;19969;-59
2023/12/05 03:17:06;;;;;;;;;;;;;;;;;;5120333;27;19970;-57
2023/12/05 03:19:34;;;;;;;;;;;;;;;;;;5129888;27;19927;-59
2023/12/05 03:22:00;;;;;;;;;;;;;;;;;;5133931;27;19973;-57
2023/12/05 03:24:27;;;;;;;;;;;;;;;;;;5133765;27;19963;-58
2023/12/05 03:26:54;;;;;;;;;;;;;;;;;;5113131;28;20194;-59
2023/12/05 03:29:21;;;;;;;;;;;;;;;;;;5113496;28;19927;-58
2023/12/05 03:31:47;;;;;;;;;;;;;;;;;;5152133;27;20011;-57
2023/12/05 03:34:14;;;;;;;;;;;;;;;;;;5154358;27;19973;-57
2023/12/05 03:36:42;;;;;;;;;;;;;;;;;;5117272;27;20391;-58
2023/12/05 03:39:09;;;;;;;;;;;;;;;;;;5123739;27;19975;-57
2023/12/05 03:41:35;;;;;;;;;;;;;;;;;;5118855;27;20010;-60
2023/12/05 03:44:02;;;;;;;;;;;;;;;;;;5112937;28;19986;-58
2023/12/05 03:46:28;;;;;;;;;;;;;;;;;;5113015;28;20223;-59
2023/12/05 03:48:54;;;;;;;;;;;;;;;;;;5112563;28;19966;-59
2023/12/05 03:51:21;;;;;;;;;;;;;;;;;;5123047;27;20021;-58
2023/12/05 03:53:49;;;;;;;;;;;;;;;;;;5133322;27;20014;-59
2023/12/05 03:56:15;;;;;;;;;;;;;;;;;;5115395;27;19975;-57
2023/12/05 03:58:42;;;;;;;;;;;;;;;;;;5112886;28;19978;-59
2023/12/05 04:01:08;;;;;;;;;;;;;;;;;;5113081;28;19978;-59
2023/12/05 04:03:35;;;;;;;;;;;;;;;;;;5112590;28;19970;-59
2023/12/05 04:06:01;;;;;;;;;;;;;;;;;;5112644;28;20371;-59
2023/12/05 04:08:28;;;;;;;;;;;;;;;;;;5112533;28;19924;-58
2023/12/05 04:10:56;;;;;;;;;;;;;;;;;;5112774;28;19985;-59
2023/12/05 04:13:22;;;;;;;;;;;;;;;;;;5112499;28;19963;-59
2023/12/05 04:15:49;;;;;;;;;;;;;;;;;;5112442;28;20478;-59
2023/12/05 04:18:15;;;;;;;;;;;;;;;;;;5112942;28;20414;-59
2023/12/05 04:20:42;;;;;;;;;;;;;;;;;;5112764;28;19969;-59
2023/12/05 04:23:08;;;;;;;;;;;;;;;;;;5112740;28;20406;-58
2023/12/05 04:25:35;;;;;;;;;;;;;;;;;;5112881;28;19923;-57
2023/12/05 04:28:03;;;;;;;;;;;;;;;;;;5112707;28;20030;-57
2023/12/05 04:30:29;;;;;;;;;;;;;;;;;;5128263;27;19978;-58
2023/12/05 04:32:56;;;;;;;;;;;;;;;;;;5130419;27;19947;-59
2023/12/05 04:35:23;;;;;;;;;;;;;;;;;;5112191;28;19924;-60
2023/12/05 04:37:49;;;;;;;;;;;;;;;;;;5137396;27;20413;-60
2023/12/05 04:40:16;;;;;;;;;;;;;;;;;;5138252;27;19923;-58
2023/12/05 04:42:42;;;;;;;;;;;;;;;;;;5116436;28;19973;-58
2023/12/05 04:45:10;;;;;;;;;;;;;;;;;;5116540;28;20011;-56
2023/12/05 04:47:36;;;;;;;;;;;;;;;;;;5116551;28;19971;-57
2023/12/05 04:50:03;;;;;;;;;;;;;;;;;;5116304;28;19977;-59
2023/12/05 04:52:30;;;;;;;;;;;;;;;;;;5119413;28;19924;-58
2023/12/05 04:54:56;;;;;;;;;;;;;;;;;;5119920;28;19924;-57
2023/12/05 04:57:23;;;;;;;;;;;;;;;;;;5135268;27;19973;-57
2023/12/05 04:59:49;;;;;;;;;;;;;;;;;;5141440;27;19949;-55
2023/12/05 05:02:17;;;;;;;;;;;;;;;;;;5140038;27;19970;-58
2023/12/05 05:04:43;;;;;;;;;;;;;;;;;;5139141;27;19963;-58
2023/12/05 05:07:11;;;;;;;;;;;;;;;;;;5131417;27;19975;-55
2023/12/05 05:09:40;;;;;;;;;;;;;;;;;;5135842;27;19928;-59
2023/12/05 05:12:08;;;;;;;;;;;;;;;;;;5128131;27;19971;-56
2023/12/05 05:14:35;;;;;;;;;;;;;;;;;;5119280;28;19946;-57
2023/12/05 05:17:03;;;;;;;;;;;;;;;;;;5135371;27;19927;-58
2023/12/05 05:19:31;;;;;;;;;;;;;;;;;;5128487;27;20351;-56
2023/12/05 05:21:57;;;;;;;;;;;;;;;;;;5119544;28;19924;-58
2023/12/05 05:24:24;;;;;;;;;;;;;;;;;;5119446;28;19963;-58
2023/12/05 05:26:50;;;;;;;;;;;;;;;;;;5122659;27;19967;-57
2023/12/05 05:29:17;;;;;;;;;;;;;;;;;;5127068;27;20259;-58
2023/12/05 05:31:43;;;;;;;;;;;;;;;;;;5119515;28;20431;-59
2023/12/05 05:34:10;;;;;;;;;;;;;;;;;;5119498;28;19955;-57
2023/12/05 05:36:38;;;;;;;;;;;;;;;;;;5118938;28;19966;-58
2023/12/05 05:39:04;;;;;;;;;;;;;;;;;;5118450;28;19963;-55
2023/12/05 05:41:31;;;;;;;;;;;;;;;;;;5139385;27;20026;-55
2023/12/05 05:43:57;;;;;;;;;;;;;;;;;;5139402;27;19969;-58
2023/12/05 05:46:24;;;;;;;;;;;;;;;;;;5131690;27;19971;-58
2023/12/05 05:48:50;;;;;;;;;;;;;;;;;;5118737;28;19955;-58
2023/12/05 05:51:17;;;;;;;;;;;;;;;;;;5118578;28;19959;-58
2023/12/05 05:53:45;;;;;;;;;;;;;;;;;;5119003;28;19924;-58
2023/12/05 05:56:11;;;;;;;;;;;;;;;;;;5118719;28;19973;-58
2023/12/05 05:58:38;;;;;;;;;;;;;;;;;;5118897;28;20411;-57
2023/12/05 06:01:05;;;;;;;;;;;;;;;;;;5118368;28;19973;-59
2023/12/05 06:03:31;;;;;;;;;;;;;;;;;;5122038;27;20279;-57
2023/12/05 06:05:59;;;;;;;;;;;;;;;;;;5131704;27;20022;-57
2023/12/05 06:08:25;;;;;;;;;;;;;;;;;;5119709;27;19924;-58
2023/12/05 06:10:53;;;;;;;;;;;;;;;;;;5138017;27;19983;-57
2023/12/05 06:13:19;;;;;;;;;;;;;;;;;;5138711;27;19958;-58
2023/12/05 06:15:46;;;;;;;;;;;;;;;;;;5132954;27;20033;-57
2023/12/05 06:18:15;;;;;;;;;;;;;;;;;;5118535;28;19967;-58
2023/12/05 06:20:42;;;;;;;;;;;;;;;;;;5130295;27;19923;-58
2023/12/05 06:23:08;;;;;;;;;;;;;;;;;;5126616;27;19924;-58
2023/12/05 06:25:35;;;;;;;;;;;;;;;;;;5117484;28;20436;-56
2023/12/05 06:28:02;;;;;;;;;;;;;;;;;;5117558;28;19950;-58
2023/12/05 06:30:29;;;;;;;;;;;;;;;;;;5118087;28;20367;-55
2023/12/05 06:32:55;;;;;;;;;;;;;;;;;;5124706;27;19924;-58
2023/12/05 06:35:22;;;;;;;;;;;;;;;;;;5130375;27;20194;-59
2023/12/05 06:37:48;;;;;;;;;;;;;;;;;;5138663;27;19923;-56
2023/12/05 06:40:15;;;;;;;;;;;;;;;;;;5120718;27;19924;-58
2023/12/05 06:42:42;;;;;;;;;;;;;;;;;;5118232;28;19923;-59
2023/12/05 06:45:10;;;;;;;;;;;;;;;;;;5117977;28;20570;-57
2023/12/05 06:47:37;;;;;;;;;;;;;;;;;;5117284;28;19981;-56
2023/12/05 06:50:10;;;;;;;;;;;;;;;;;;5117412;28;19928;-55
2023/12/05 06:52:36;;;;;;;;;;;;;;;;;;5117133;28;19930;-58
2023/12/05 06:55:03;;;;;;;;;;;;;;;;;;5117396;28;20366;-56
2023/12/05 06:57:29;;;;;;;;;;;;;;;;;;5117088;28;19966;-58
2023/12/05 06:59:56;;;;;;;;;;;;;;;;;;5116087;28;19963;-58
2023/12/05 07:02:24;;;;;;;;;;;;;;;;;;5117221;28;20023;-57
2023/12/05 07:04:50;;;;;;;;;;;;;;;;;;5117099;28;19963;-57
2023/12/05 07:07:17;;;;;;;;;;;;;;;;;;5127334;27;19945;-58
2023/12/05 07:09:43;;;;;;;;;;;;;;;;;;5137735;27;19924;-60
2023/12/05 07:12:10;;;;;;;;;;;;;;;;;;5143464;27;19923;-57
2023/12/05 07:14:36;;;;;;;;;;;;;;;;;;5158717;27;19969;-57
2023/12/05 07:17:03;;;;;;;;;;;;;;;;;;5142874;27;19966;-58
2023/12/05 07:19:31;;;;;;;;;;;;;;;;;;5136895;27;19923;-61
2023/12/05 07:21:57;;;;;;;;;;;;;;;;;;5138663;27;19966;-55
2023/12/05 07:24:24;;;;;;;;;;;;;;;;;;5137532;27;19924;-58
2023/12/05 07:26:50;;;;;;;;;;;;;;;;;;5137142;27;19998;-58
2023/12/05 07:29:17;;;;;;;;;;;;;;;;;;5137154;27;19963;-59
2023/12/05 07:31:44;;;;;;;;;;;;;;;;;;5137729;27;20309;-59
2023/12/05 07:34:10;;;;;;;;;;;;;;;;;;5119815;27;20382;-57
2023/12/05 07:36:41;;;;;;;;;;;;;;;;;;5137801;27;19963;-58
2023/12/05 07:39:09;;;;;;;;;;;;;;;;;;5134656;27;19923;-60
2023/12/05 07:41:36;;;;;;;;;;;;;;;;;;5125665;27;20274;-55
2023/12/05 07:44:02;;;;;;;;;;;;;;;;;;5119688;27;19924;-56
2023/12/05 07:46:29;;;;;;;;;;;;;;;;;;5116962;28;19977;-57
2023/12/05 07:48:55;;;;;;;;;;;;;;;;;;5129721;27;19950;-58
2023/12/05 07:51:22;;;;;;;;;;;;;;;;;;5136022;27;19971;-58
2023/12/05 07:53:50;;;;;;;;;;;;;;;;;;5134246;27;19970;-59
2023/12/05 07:56:17;;;;;;;;;;;;;;;;;;5133544;27;20256;-59
2023/12/05 07:58:43;;;;;;;;;;;;;;;;;;5133374;27;19924;-58
2023/12/05 08:01:10;;;;;;;;;;;;;;;;;;5133483;27;20417;-59
2023/12/05 08:03:36;;;;;;;;;;;;;;;;;;5133075;27;20006;-58
2023/12/05 08:06:03;;;;;;;;;;;;;;;;;;5133531;28;20002;-59
2023/12/05 08:08:31;;;;;;;;;;;;;;;;;;5126885;28;20018;-58
2023/12/05 08:10:59;;;;;;;;;;;;;;;;;;5133634;27;19924;-58
2023/12/05 08:13:25;;;;;;;;;;;;;;;;;;5137261;27;20010;-59
2023/12/05 08:15:52;;;;;;;;;;;;;;;;;;5129062;27;19924;-58
2023/12/05 08:18:19;;;;;;;;;;;;;;;;;;5133814;27;20010;-59
2023/12/05 08:20:45;;;;;;;;;;;;;;;;;;5120946;27;20097;-58
2023/12/05 08:23:12;;;;;;;;;;;;;;;;;;5132656;27;19981;-59
2023/12/05 08:25:38;;;;;;;;;;;;;;;;;;5137207;27;20018;-59
2023/12/05 08:28:06;;;;;;;;;;;;;;;;;;5135698;27;20021;-59
2023/12/05 08:30:32;;;;;;;;;;;;;;;;;;5117036;28;19959;-59
2023/12/05 08:32:59;;;;;;;;;;;;;;;;;;5117240;28;20022;-59
2023/12/05 08:35:26;;;;;;;;;;;;;;;;;;5122992;27;19954;-58
2023/12/05 08:37:52;;;;;;;;;;;;;;;;;;5128322;27;19924;-59
2023/12/05 08:40:18;;;;;;;;;;;;;;;;;;5116520;28;20014;-59
2023/12/05 08:42:45;;;;;;;;;;;;;;;;;;5125309;27;20447;-59
2023/12/05 08:45:13;;;;;;;;;;;;;;;;;;5125997;27;19974;-59
2023/12/05 08:47:38;;;;;;;;;;;;;;;;;;5129189;27;19971;-59
2023/12/05 08:50:06;;;;;;;;;;;;;;;;;;5136990;27;19993;-58
2023/12/05 08:52:32;;;;;;;;;;;;;;;;;;5122405;27;19924;-59
2023/12/05 08:55:00;;;;;;;;;;;;;;;;;;5125535;27;20022;-58
2023/12/05 08:57:26;;;;;;;;;;;;;;;;;;5136968;27;19971;-60
2023/12/05 08:59:53;;;;;;;;;;;;;;;;;;5120116;27;20014;-59
2023/12/05 09:02:21;;;;;;;;;;;;;;;;;;5116534;28;19924;-59
2023/12/05 09:04:47;;;;;;;;;;;;;;;;;;5131559;27;20071;-56
2023/12/05 09:07:14;;;;;;;;;;;;;;;;;;5128302;27;19973;-58
2023/12/05 09:09:41;;;;;;;;;;;;;;;;;;5136726;27;19971;-59
2023/12/05 09:12:07;;;;;;;;;;;;;;;;;;5121281;27;19975;-59
2023/12/05 09:14:34;;;;;;;;;;;;;;;;;;5131500;27;20006;-58
2023/12/05 09:17:01;;;;;;;;;;;;;;;;;;5122913;27;20019;-59
2023/12/05 09:19:28;;;;;;;;;;;;;;;;;;5120166;27;19923;-59
2023/12/05 09:21:55;;;;;;;;;;;;;;;;;;5135672;27;19923;-59
2023/12/05 09:24:21;;;;;;;;;;;;;;;;;;5133721;27;20363;-58
2023/12/05 09:26:48;;;;;;;;;;;;;;;;;;5136045;27;19955;-59
2023/12/05 09:29:15;;;;;;;;;;;;;;;;;;5133610;27;19980;-59
2023/12/05 09:31:41;;;;;;;;;;;;;;;;;;5115641;28;20011;-59
2023/12/05 09:34:08;;;;;;;;;;;;;;;;;;5135914;27;20390;-58
2023/12/05 09:36:35;;;;;;;;;;;;;;;;;;5127814;27;19961;-59
2023/12/05 09:39:02;;;;;;;;;;;;;;;;;;5128588;27;20014;-58
2023/12/05 09:41:29;;;;;;;;;;;;;;;;;;5130095;27;19924;-59
2023/12/05 09:43:58;;;;;;;;;;;;;;;;;;5131862;27;20023;-59
2023/12/05 09:46:25;;;;;;;;;;;;;;;;;;5115419;28;20099;-59
2023/12/05 09:48:54;;;;;;;;;;;;;;;;;;5131889;27;19970;-59
2023/12/05 09:51:22;;;;;;;;;;;;;;;;;;5135904;27;20094;-60
2023/12/05 09:53:51;;;;;;;;;;;;;;;;;;5135291;27;19941;-59
2023/12/05 09:56:19;;;;;;;;;;;;;;;;;;5137114;27;19923;-59
2023/12/05 09:58:45;;;;;;;;;;;;;;;;;;5140773;27;19924;-59
2023/12/05 10:01:13;;;;;;;;;;;;;;;;;;5122121;27;19924;-60
2023/12/05 10:03:41;;;;;;;;;;;;;;;;;;5125720;27;19930;-59
2023/12/05 10:06:09;;;;;;;;;;;;;;;;;;5119114;27;19930;-59
2023/12/05 10:08:37;;;;;;;;;;;;;;;;;;5119722;27;20172;-59
2023/12/05 10:11:05;;;;;;;;;;;;;;;;;;5120898;27;19923;-60
2023/12/05 10:13:32;;;;;;;;;;;;;;;;;;5122488;27;20014;-62
2023/12/05 10:16:00;;;;;;;;;;;;;;;;;;5119811;27;19931;-61
2023/12/05 10:18:27;;;;;;;;;;;;;;;;;;5118188;27;20427;-62
2023/12/05 10:20:53;;;;;;;;;;;;;;;;;;5123351;27;20391;-62
2023/12/05 10:23:20;;;;;;;;;;;;;;;;;;5122184;27;20478;-63
2023/12/05 10:25:46;;;;;;;;;;;;;;;;;;5117848;27;20015;-61
2023/12/05 10:28:14;;;;;;;;;;;;;;;;;;5119502;27;20359;-62
2023/12/05 10:30:41;;;;;;;;;;;;;;;;;;5121593;27;20386;-61
2023/12/05 10:33:11;;;;;;;;;;;;;;;;;;5122516;27;19935;-61
2023/12/05 10:35:36;;;;;;;;;;;;;;;;;;5127164;27;19974;-61
2023/12/05 10:38:05;;;;;;;;;;;;;;;;;;5119976;27;19958;-61
2023/12/05 10:40:49;;;;;;;;;;;;;;;;;;5124455;27;19994;-61
2023/12/05 10:43:17;;;;;;;;;;;;;;;;;;5118835;27;20454;-61
2023/12/05 10:45:44;;;;;;;;;;;;;;;;;;5120628;27;20007;-63
2023/12/05 10:48:11;;;;;;;;;;;;;;;;;;5120786;27;20344;-66
2023/12/05 10:50:37;;;;;;;;;;;;;;;;;;5119551;27;19928;-61
2023/12/05 10:53:05;;;;;;;;;;;;;;;;;;5115903;27;20022;-63
2023/12/05 10:55:31;;;;;;;;;;;;;;;;;;5116785;27;21775;-63
2023/12/05 10:57:58;;;;;;;;;;;;;;;;;;5119655;27;20084;-64
2023/12/05 11:00:26;;;;;;;;;;;;;;;;;;5125349;27;20019;-67
2023/12/05 11:02:53;;;;;;;;;;;;;;;;;;5115883;27;20011;-67
2023/12/05 11:05:20;;;;;;;;;;;;;;;;;;5117557;27;19931;-61
2023/12/05 11:07:46;;;;;;;;;;;;;;;;;;5125095;27;20018;-61
2023/12/05 11:10:13;;;;;;;;;;;;;;;;;;5129002;27;19923;-61
2023/12/05 11:12:41;;;;;;;;;;;;;;;;;;5131771;27;20006;-62
2023/12/05 11:15:08;;;;;;;;;;;;;;;;;;5130952;27;20006;-60
2023/12/05 11:17:37;;;;;;;;;;;;;;;;;;5130111;27;20387;-62
2023/12/05 11:20:12;;;;;;;;;;;;;;;;;;5117467;27;19928;-60
2023/12/05 11:22:42;;;;;;;;;;;;;;;;;;5122339;27;19982;-61
2023/12/05 11:25:17;;;;;;;;;;;;;;;;;;5119956;27;20297;-60
2023/12/05 11:27:48;;;;;;;;;;;;;;;;;;5122833;27;19988;-61
2023/12/05 11:30:23;;;;;;;;;;;;;;;;;;5122926;27;19950;-60
2023/12/05 11:32:58;;;;;;;;;;;;;;;;;;5125390;27;20460;-61
2023/12/05 11:35:29;;;;;;;;;;;;;;;;;;5126251;27;20363;-60
2023/12/05 11:38:02;;;;;;;;;;;;;;;;;;5123087;27;19923;-60
2023/12/05 11:40:29;;;;;;;;;;;;;;;;;;5117030;27;20026;-60
2023/12/05 11:43:05;;;;;;;;;;;;;;;;;;5120506;27;20022;-59
2023/12/05 11:45:32;;;;;;;;;;;;;;;;;;5122543;27;20305;-60
2023/12/05 11:48:00;;;;;;;;;;;;;;;;;;5128773;27;19978;-60
2023/12/05 11:50:26;;;;;;;;;;;;;;;;;;5119436;27;20011;-60
2023/12/05 11:52:53;;;;;;;;;;;;;;;;;;5115548;27;20022;-63
2023/12/05 11:55:19;;;;;;;;;;;;;;;;;;5122419;27;20023;-61
2023/12/05 11:57:46;;;;;;;;;;;;;;;;;;5123091;27;20009;-61
2023/12/05 12:00:13;;;;;;;;;;;;;;;;;;5117306;27;19999;-60
2023/12/05 12:02:44;;;;;;;;;;;;;;;;;;5122010;27;19929;-60
2023/12/05 12:05:12;;;;;;;;;;;;;;;;;;5120732;27;19924;-60
2023/12/05 12:07:45;;;;;;;;;;;;;;;;;;5115807;27;20007;-60
2023/12/05 12:10:13;;;;;;;;;;;;;;;;;;5122112;28;20393;-60
2023/12/05 12:12:39;;;;;;;;;;;;;;;;;;5117918;28;20319;-58
2023/12/05 12:15:06;;;;;;;;;;;;;;;;;;5122058;28;20023;-59
2023/12/05 12:17:33;;;;;;;;;;;;;;;;;;5129930;28;19985;-60
2023/12/05 12:19:59;;;;;;;;;;;;;;;;;;5130248;28;20402;-60
2023/12/05 12:22:27;;;;;;;;;;;;;;;;;;5122145;28;20192;-61
2023/12/05 12:25:04;;;;;;;;;;;;;;;;;;5131045;28;20279;-62
2023/12/05 12:27:34;;;;;;;;;;;;;;;;;;5111013;28;19939;-61
2023/12/05 12:30:01;;;;;;;;;;;;;;;;;;5125579;28;20010;-62
2023/12/05 12:32:27;;;;;;;;;;;;;;;;;;5128334;28;20341;-61
2023/12/05 12:34:53;;;;;;;;;;;;;;;;;;5116599;28;19924;-62
2023/12/05 12:37:20;;;;;;;;;;;;;;;;;;5128531;28;19970;-61
2023/12/05 12:39:49;;;;;;;;;;;;;;;;;;5125542;28;19959;-59
2023/12/05 12:42:16;;;;;;;;;;;;;;;;;;5120014;28;20272;-61
2023/12/05 12:44:43;;;;;;;;;;;;;;;;;;5121522;28;19923;-61
2023/12/05 12:47:09;;;;;;;;;;;;;;;;;;5123901;28;20018;-60
2023/12/05 12:49:36;;;;;;;;;;;;;;;;;;5113419;28;20361;-61
2023/12/05 12:52:03;;;;;;;;;;;;;;;;;;5115917;28;19953;-61
2023/12/05 12:54:29;;;;;;;;;;;;;;;;;;5121790;28;19977;-60
2023/12/05 12:56:57;;;;;;;;;;;;;;;;;;5121995;27;19967;-62
2023/12/05 12:59:24;;;;;;;;;;;;;;;;;;5116764;27;20334;-61
2023/12/05 13:01:51;;;;;;;;;;;;;;;;;;5125988;27;19924;-61
2023/12/05 13:04:18;;;;;;;;;;;;;;;;;;5130127;27;19973;-60
2023/12/05 13:06:45;;;;;;;;;;;;;;;;;;5123440;27;20450;-60
2023/12/05 13:09:13;;;;;;;;;;;;;;;;;;5131739;27;20219;-61
2023/12/05 13:11:42;;;;;;;;;;;;;;;;;;5116762;27;19931;-61
2023/12/05 13:14:11;;;;;;;;;;;;;;;;;;5122502;27;20024;-61
2023/12/05 13:16:38;;;;;;;;;;;;;;;;;;5117555;27;19924;-61
2023/12/05 13:19:05;;;;;;;;;;;;;;;;;;5120918;27;19931;-61
2023/12/05 13:21:32;;;;;;;;;;;;;;;;;;5126228;27;19932;-60
2023/12/05 13:23:59;;;;;;;;;;;;;;;;;;5132440;27;19932;-60
2023/12/05 13:26:25;;;;;;;;;;;;;;;;;;5133541;27;19974;-61
2023/12/05 13:28:52;;;;;;;;;;;;;;;;;;5134180;27;20018;-61
2023/12/05 13:31:20;;;;;;;;;;;;;;;;;;5140155;27;19923;-61
2023/12/05 13:33:46;;;;;;;;;;;;;;;;;;5139954;27;20035;-61
2023/12/05 13:36:13;;;;;;;;;;;;;;;;;;5125820;27;20019;-61
2023/12/05 13:38:40;;;;;;;;;;;;;;;;;;5117771;27;19972;-61
2023/12/05 13:41:06;;;;;;;;;;;;;;;;;;5124888;27;20166;-61
2023/12/05 13:43:33;;;;;;;;;;;;;;;;;;5133063;27;19973;-60
2023/12/05 13:45:59;;;;;;;;;;;;;;;;;;5128436;27;20019;-60
2023/12/05 13:48:27;;;;;;;;;;;;;;;;;;5125600;27;19923;-61
2023/12/05 13:50:54;;;;;;;;;;;;;;;;;;5113712;27;20007;-61
2023/12/05 13:53:23;;;;;;;;;;;;;;;;;;5117676;27;20015;-62
2023/12/05 13:55:49;;;;;;;;;;;;;;;;;;5126645;27;20347;-60
2023/12/05 13:58:16;;;;;;;;;;;;;;;;;;5134104;27;20235;-60
2023/12/05 14:00:43;;;;;;;;;;;;;;;;;;5133449;27;19924;-61
2023/12/05 14:03:09;;;;;;;;;;;;;;;;;;5131005;27;20022;-61
2023/12/05 14:05:37;;;;;;;;;;;;;;;;;;5133871;27;19974;-61
2023/12/05 14:08:04;;;;;;;;;;;;;;;;;;5128298;27;19978;-61
2023/12/05 14:10:30;;;;;;;;;;;;;;;;;;5128538;27;19971;-61
2023/12/05 14:12:57;;;;;;;;;;;;;;;;;;5133431;27;20015;-61
2023/12/05 14:15:24;;;;;;;;;;;;;;;;;;5129299;27;20325;-61
2023/12/05 14:17:50;;;;;;;;;;;;;;;;;;5132352;27;19923;-61
2023/12/05 14:20:17;;;;;;;;;;;;;;;;;;5124166;27;20487;-60
2023/12/05 14:22:45;;;;;;;;;;;;;;;;;;5122561;27;20387;-60
2023/12/05 14:25:11;;;;;;;;;;;;;;;;;;5133063;27;19924;-61
2023/12/05 14:27:38;;;;;;;;;;;;;;;;;;5123681;27;19927;-62
2023/12/05 14:30:06;;;;;;;;;;;;;;;;;;5130800;27;19967;-61
2023/12/05 14:32:32;;;;;;;;;;;;;;;;;;5119286;27;19931;-62
2023/12/05 14:34:59;;;;;;;;;;;;;;;;;;5122648;27;19989;-61
2023/12/05 14:37:25;;;;;;;;;;;;;;;;;;5124497;27;19925;-62
2023/12/05 14:39:53;;;;;;;;;;;;;;;;;;5137686;27;20054;-62
2023/12/05 14:42:19;;;;;;;;;;;;;;;;;;5135292;27;20014;-62
2023/12/05 14:44:46;;;;;;;;;;;;;;;;;;5122456;27;20019;-61
2023/12/05 14:47:12;;;;;;;;;;;;;;;;;;5122624;27;20323;-62
2023/12/05 14:49:39;;;;;;;;;;;;;;;;;;5130554;27;20014;-61
2023/12/05 14:52:05;;;;;;;;;;;;;;;;;;5132262;27;20373;-61
2023/12/05 14:54:32;;;;;;;;;;;;;;;;;;5125956;27;20454;-62
2023/12/05 14:57:00;;;;;;;;;;;;;;;;;;5129886;27;20344;-61
2023/12/05 14:59:26;;;;;;;;;;;;;;;;;;5133835;27;20014;-62
2023/12/05 15:01:53;;;;;;;;;;;;;;;;;;5131220;27;20370;-60
2023/12/05 15:04:20;;;;;;;;;;;;;;;;;;5130150;27;20426;-62
2023/12/05 15:06:46;;;;;;;;;;;;;;;;;;5129238;27;19924;-61
2023/12/05 15:09:13;;;;;;;;;;;;;;;;;;5128883;27;20369;-61
2023/12/05 15:11:39;;;;;;;;;;;;;;;;;;5115673;27;19931;-62
2023/12/05 15:14:07;;;;;;;;;;;;;;;;;;5123896;27;20022;-62
2023/12/05 15:16:33;;;;;;;;;;;;;;;;;;5115127;27;20359;-62
2023/12/05 15:19:00;;;;;;;;;;;;;;;;;;5123595;27;19987;-62
2023/12/05 15:21:27;;;;;;;;;;;;;;;;;;5112755;27;20391;-61
2023/12/05 15:23:53;;;;;;;;;;;;;;;;;;5117365;27;19962;-61
2023/12/05 15:26:20;;;;;;;;;;;;;;;;;;5122129;27;20003;-61
2023/12/05 15:28:46;;;;;;;;;;;;;;;;;;5116361;27;20002;-62
2023/12/05 15:31:15;;;;;;;;;;;;;;;;;;5132109;27;19976;-62
2023/12/05 15:33:42;;;;;;;;;;;;;;;;;;5116123;27;20011;-62
2023/12/05 15:36:09;;;;;;;;;;;;;;;;;;5132091;27;20289;-61
2023/12/05 15:38:36;;;;;;;;;;;;;;;;;;5123412;27;20349;-60
2023/12/05 15:41:07;;;;;;;;;;;;;;;;;;5122354;27;19924;-61
2023/12/05 15:43:34;;;;;;;;;;;;;;;;;;5130294;27;20276;-61
2023/12/05 15:46:01;;;;;;;;;;;;;;;;;;5125175;27;20015;-61
2023/12/05 15:48:29;;;;;;;;;;;;;;;;;;5119354;27;20016;-62
2023/12/05 15:50:55;;;;;;;;;;;;;;;;;;5110825;28;19967;-62
2023/12/05 15:53:22;;;;;;;;;;;;;;;;;;5110988;28;20475;-62
2023/12/05 15:55:48;;;;;;;;;;;;;;;;;;5110750;28;19976;-62
2023/12/05 15:58:15;;;;;;;;;;;;;;;;;;5122396;27;19975;-61
2023/12/05 16:00:54;;;;;;;;;;;;;;;;;;5119300;27;19928;-62
2023/12/05 16:03:27;;;;;;;;;;;;;;;;;;5120991;27;20562;-61
2023/12/05 16:05:55;;;;;;;;;;;;;;;;;;5116132;27;19927;-60
2023/12/05 16:08:22;;;;;;;;;;;;;;;;;;5127593;27;19924;-60
2023/12/05 16:10:50;;;;;;;;;;;;;;;;;;5118157;27;20290;-61
2023/12/05 16:13:17;;;;;;;;;;;;;;;;;;5121405;28;19923;-65
2023/12/05 16:15:43;;;;;;;;;;;;;;;;;;5130634;28;19970;-62
2023/12/05 16:18:09;;;;;;;;;;;;;;;;;;5117581;28;20010;-62
2023/12/05 16:20:36;;;;;;;;;;;;;;;;;;5120259;28;20018;-60
2023/12/05 16:23:04;;;;;;;;;;;;;;;;;;5131272;28;19970;-62
2023/12/05 16:25:29;;;;;;;;;;;;;;;;;;5129449;27;19927;-63
2023/12/05 16:27:56;;;;;;;;;;;;;;;;;;5131159;27;20180;-62
2023/12/05 16:30:22;;;;;;;;;;;;;;;;;;5128899;28;19968;-62
2023/12/05 16:32:49;;;;;;;;;;;;;;;;;;5121661;27;20015;-60
2023/12/05 16:35:15;;;;;;;;;;;;;;;;;;5137943;27;20009;-61
2023/12/05 16:37:43;;;;;;;;;;;;;;;;;;5129463;27;20014;-61
2023/12/05 16:40:11;;;;;;;;;;;;;;;;;;5119787;27;19971;-62
2023/12/05 16:42:38;;;;;;;;;;;;;;;;;;5133225;27;19997;-62
2023/12/05 16:45:06;;;;;;;;;;;;;;;;;;5133786;27;20092;-62